sensor_id;sensor_type;location;lat;lon;timestamp;temperature;humidity
36990;DHT22;22898;52.102;5.776;2022-11-20T00:00:51;4.40;86.40
36990;DHT22;22898;52.102;5.776;2022-11-20T00:03:16;4.30;86.40
36990;DHT22;22898;52.102;5.776;2022-11-20T00:05:42;4.30;86.30
36990;DHT22;22898;52.102;5.776;2022-11-20T00:08:08;4.30;86.60
36990;DHT22;22898;52.102;5.776;2022-11-20T00:10:36;4.30;86.60
36990;DHT22;22898;52.102;5.776;2022-11-20T00:13:01;4.30;86.60
36990;DHT22;22898;52.102;5.776;2022-11-20T00:15:27;4.20;86.60
36990;DHT22;22898;52.102;5.776;2022-11-20T00:17:52;4.30;86.00
36990;DHT22;22898;52.102;5.776;2022-11-20T00:20:19;4.30;85.50
36990;DHT22;22898;52.102;5.776;2022-11-20T00:22:45;4.30;85.10
36990;DHT22;22898;52.102;5.776;2022-11-20T00:25:11;4.30;84.90
36990;DHT22;22898;52.102;5.776;2022-11-20T00:27:36;4.10;85.20
36990;DHT22;22898;52.102;5.776;2022-11-20T00:30:02;4.00;85.80
36990;DHT22;22898;52.102;5.776;2022-11-20T00:32:28;3.90;86.60
36990;DHT22;22898;52.102;5.776;2022-11-20T00:34:54;3.80;87.20
36990;DHT22;22898;52.102;5.776;2022-11-20T00:37:19;3.80;87.30
36990;DHT22;22898;52.102;5.776;2022-11-20T00:39:45;3.80;87.30
36990;DHT22;22898;52.102;5.776;2022-11-20T00:42:10;3.80;87.50
36990;DHT22;22898;52.102;5.776;2022-11-20T00:44:36;3.80;87.20
36990;DHT22;22898;52.102;5.776;2022-11-20T00:47:01;4.00;86.30
36990;DHT22;22898;52.102;5.776;2022-11-20T00:49:27;4.00;85.50
36990;DHT22;22898;52.102;5.776;2022-11-20T00:51:52;4.00;85.10
36990;DHT22;22898;52.102;5.776;2022-11-20T00:54:18;3.70;86.40
36990;DHT22;22898;52.102;5.776;2022-11-20T00:56:43;3.50;87.10
36990;DHT22;22898;52.102;5.776;2022-11-20T00:59:09;3.50;87.90
36990;DHT22;22898;52.102;5.776;2022-11-20T01:01:34;3.40;87.90
36990;DHT22;22898;52.102;5.776;2022-11-20T01:04:01;3.50;87.70
36990;DHT22;22898;52.102;5.776;2022-11-20T01:06:30;3.60;87.30
36990;DHT22;22898;52.102;5.776;2022-11-20T01:08:58;3.60;87.00
36990;DHT22;22898;52.102;5.776;2022-11-20T01:11:25;3.70;86.50
36990;DHT22;22898;52.102;5.776;2022-11-20T01:13:51;3.70;86.60
36990;DHT22;22898;52.102;5.776;2022-11-20T01:18:46;3.70;85.70
36990;DHT22;22898;52.102;5.776;2022-11-20T01:21:16;3.50;86.10
36990;DHT22;22898;52.102;5.776;2022-11-20T01:23:43;3.50;86.00
36990;DHT22;22898;52.102;5.776;2022-11-20T01:26:12;3.50;86.00
36990;DHT22;22898;52.102;5.776;2022-11-20T01:28:38;3.50;85.80
36990;DHT22;22898;52.102;5.776;2022-11-20T01:31:24;3.60;85.20
36990;DHT22;22898;52.102;5.776;2022-11-20T01:33:50;3.30;85.50
36990;DHT22;22898;52.102;5.776;2022-11-20T01:36:16;3.20;86.10
36990;DHT22;22898;52.102;5.776;2022-11-20T01:38:42;3.20;86.00
36990;DHT22;22898;52.102;5.776;2022-11-20T01:41:09;3.20;86.00
36990;DHT22;22898;52.102;5.776;2022-11-20T01:43:34;3.10;86.90
36990;DHT22;22898;52.102;5.776;2022-11-20T01:46:04;3.10;87.10
36990;DHT22;22898;52.102;5.776;2022-11-20T01:48:38;3.10;86.90
36990;DHT22;22898;52.102;5.776;2022-11-20T01:51:06;3.10;86.90
36990;DHT22;22898;52.102;5.776;2022-11-20T01:53:35;3.20;87.00
36990;DHT22;22898;52.102;5.776;2022-11-20T01:56:01;3.20;86.90
36990;DHT22;22898;52.102;5.776;2022-11-20T01:58:29;3.20;87.00
36990;DHT22;22898;52.102;5.776;2022-11-20T02:00:55;3.30;86.30
36990;DHT22;22898;52.102;5.776;2022-11-20T02:03:21;3.40;85.70
36990;DHT22;22898;52.102;5.776;2022-11-20T02:06:04;3.20;85.90
36990;DHT22;22898;52.102;5.776;2022-11-20T02:08:31;3.00;86.50
36990;DHT22;22898;52.102;5.776;2022-11-20T02:10:57;3.00;86.80
36990;DHT22;22898;52.102;5.776;2022-11-20T02:13:24;3.00;86.60
36990;DHT22;22898;52.102;5.776;2022-11-20T02:16:13;3.00;86.70
36990;DHT22;22898;52.102;5.776;2022-11-20T02:18:39;3.10;86.70
36990;DHT22;22898;52.102;5.776;2022-11-20T02:21:06;3.10;86.30
36990;DHT22;22898;52.102;5.776;2022-11-20T02:23:38;3.00;86.70
36990;DHT22;22898;52.102;5.776;2022-11-20T02:26:04;3.00;87.30
36990;DHT22;22898;52.102;5.776;2022-11-20T02:28:30;3.00;87.20
36990;DHT22;22898;52.102;5.776;2022-11-20T02:30:56;3.10;86.80
36990;DHT22;22898;52.102;5.776;2022-11-20T02:33:22;3.30;85.40
36990;DHT22;22898;52.102;5.776;2022-11-20T02:35:47;3.30;85.00
36990;DHT22;22898;52.102;5.776;2022-11-20T02:38:13;3.10;85.60
36990;DHT22;22898;52.102;5.776;2022-11-20T02:40:38;3.10;85.80
36990;DHT22;22898;52.102;5.776;2022-11-20T02:43:04;3.00;86.10
36990;DHT22;22898;52.102;5.776;2022-11-20T02:45:29;3.10;85.00
36990;DHT22;22898;52.102;5.776;2022-11-20T02:47:55;3.00;85.10
36990;DHT22;22898;52.102;5.776;2022-11-20T02:50:20;2.90;85.90
36990;DHT22;22898;52.102;5.776;2022-11-20T02:52:46;2.70;86.00
36990;DHT22;22898;52.102;5.776;2022-11-20T02:55:11;2.70;86.70
36990;DHT22;22898;52.102;5.776;2022-11-20T02:57:38;2.70;86.20
36990;DHT22;22898;52.102;5.776;2022-11-20T03:00:04;2.60;86.40
36990;DHT22;22898;52.102;5.776;2022-11-20T03:02:30;2.70;86.60
36990;DHT22;22898;52.102;5.776;2022-11-20T03:04:57;2.80;86.10
36990;DHT22;22898;52.102;5.776;2022-11-20T03:07:22;2.70;85.80
36990;DHT22;22898;52.102;5.776;2022-11-20T03:09:48;2.70;85.70
36990;DHT22;22898;52.102;5.776;2022-11-20T03:12:13;2.80;85.10
36990;DHT22;22898;52.102;5.776;2022-11-20T03:14:39;2.50;86.30
36990;DHT22;22898;52.102;5.776;2022-11-20T03:17:04;2.40;86.90
36990;DHT22;22898;52.102;5.776;2022-11-20T03:19:30;2.40;86.90
36990;DHT22;22898;52.102;5.776;2022-11-20T03:21:55;2.40;86.70
36990;DHT22;22898;52.102;5.776;2022-11-20T03:24:21;2.30;86.80
36990;DHT22;22898;52.102;5.776;2022-11-20T03:26:46;2.40;86.40
36990;DHT22;22898;52.102;5.776;2022-11-20T03:29:11;2.30;86.70
36990;DHT22;22898;52.102;5.776;2022-11-20T03:31:38;2.20;86.80
36990;DHT22;22898;52.102;5.776;2022-11-20T03:34:07;2.40;86.30
36990;DHT22;22898;52.102;5.776;2022-11-20T03:36:34;2.40;85.70
36990;DHT22;22898;52.102;5.776;2022-11-20T03:38:59;2.40;85.80
36990;DHT22;22898;52.102;5.776;2022-11-20T03:41:26;2.40;86.70
36990;DHT22;22898;52.102;5.776;2022-11-20T03:43:56;2.40;85.70
36990;DHT22;22898;52.102;5.776;2022-11-20T03:46:22;2.50;85.60
36990;DHT22;22898;52.102;5.776;2022-11-20T03:48:47;2.50;86.40
36990;DHT22;22898;52.102;5.776;2022-11-20T03:51:15;2.60;84.90
36990;DHT22;22898;52.102;5.776;2022-11-20T03:53:41;2.60;84.30
36990;DHT22;22898;52.102;5.776;2022-11-20T03:56:07;2.40;84.80
36990;DHT22;22898;52.102;5.776;2022-11-20T03:58:36;2.30;85.20
36990;DHT22;22898;52.102;5.776;2022-11-20T04:01:08;2.40;84.30
36990;DHT22;22898;52.102;5.776;2022-11-20T04:03:35;2.30;84.50
36990;DHT22;22898;52.102;5.776;2022-11-20T04:06:19;2.20;84.90
36990;DHT22;22898;52.102;5.776;2022-11-20T04:08:44;2.20;85.20
36990;DHT22;22898;52.102;5.776;2022-11-20T04:11:14;2.30;85.20
36990;DHT22;22898;52.102;5.776;2022-11-20T04:13:40;2.20;85.20
36990;DHT22;22898;52.102;5.776;2022-11-20T04:16:06;2.10;85.80
36990;DHT22;22898;52.102;5.776;2022-11-20T04:18:32;2.00;86.00
36990;DHT22;22898;52.102;5.776;2022-11-20T04:21:00;1.80;86.80
36990;DHT22;22898;52.102;5.776;2022-11-20T04:23:26;1.70;87.20
36990;DHT22;22898;52.102;5.776;2022-11-20T04:25:52;1.80;87.20
36990;DHT22;22898;52.102;5.776;2022-11-20T04:28:17;1.90;87.00
36990;DHT22;22898;52.102;5.776;2022-11-20T04:30:44;2.00;86.60
36990;DHT22;22898;52.102;5.776;2022-11-20T04:33:09;2.10;85.90
36990;DHT22;22898;52.102;5.776;2022-11-20T04:35:36;2.10;86.00
36990;DHT22;22898;52.102;5.776;2022-11-20T04:38:03;2.10;85.70
36990;DHT22;22898;52.102;5.776;2022-11-20T04:40:28;2.10;85.50
36990;DHT22;22898;52.102;5.776;2022-11-20T04:42:54;2.10;85.20
36990;DHT22;22898;52.102;5.776;2022-11-20T04:45:20;2.10;85.50
36990;DHT22;22898;52.102;5.776;2022-11-20T04:47:45;2.30;84.40
36990;DHT22;22898;52.102;5.776;2022-11-20T04:50:11;2.30;83.60
36990;DHT22;22898;52.102;5.776;2022-11-20T04:52:39;2.10;84.50
36990;DHT22;22898;52.102;5.776;2022-11-20T04:55:04;2.00;84.80
36990;DHT22;22898;52.102;5.776;2022-11-20T04:57:30;2.10;84.70
36990;DHT22;22898;52.102;5.776;2022-11-20T04:59:55;2.10;83.70
36990;DHT22;22898;52.102;5.776;2022-11-20T05:02:21;2.00;83.60
36990;DHT22;22898;52.102;5.776;2022-11-20T05:04:46;1.60;85.60
36990;DHT22;22898;52.102;5.776;2022-11-20T05:07:12;1.60;86.10
36990;DHT22;22898;52.102;5.776;2022-11-20T05:09:38;1.70;85.80
36990;DHT22;22898;52.102;5.776;2022-11-20T05:12:03;1.70;85.60
36990;DHT22;22898;52.102;5.776;2022-11-20T05:14:29;1.70;85.40
36990;DHT22;22898;52.102;5.776;2022-11-20T05:16:54;1.70;84.80
36990;DHT22;22898;52.102;5.776;2022-11-20T05:19:20;1.60;85.20
36990;DHT22;22898;52.102;5.776;2022-11-20T05:21:48;1.60;85.40
36990;DHT22;22898;52.102;5.776;2022-11-20T05:24:13;1.70;85.10
36990;DHT22;22898;52.102;5.776;2022-11-20T05:26:39;1.60;85.10
36990;DHT22;22898;52.102;5.776;2022-11-20T05:29:04;1.60;85.10
36990;DHT22;22898;52.102;5.776;2022-11-20T05:31:31;1.70;85.10
36990;DHT22;22898;52.102;5.776;2022-11-20T05:33:57;1.80;85.10
36990;DHT22;22898;52.102;5.776;2022-11-20T05:36:22;1.80;84.80
36990;DHT22;22898;52.102;5.776;2022-11-20T05:38:48;1.80;84.80
36990;DHT22;22898;52.102;5.776;2022-11-20T05:41:20;1.70;84.80
36990;DHT22;22898;52.102;5.776;2022-11-20T05:43:46;1.70;85.00
36990;DHT22;22898;52.102;5.776;2022-11-20T05:46:12;1.60;84.90
36990;DHT22;22898;52.102;5.776;2022-11-20T05:48:38;1.50;85.00
36990;DHT22;22898;52.102;5.776;2022-11-20T05:51:05;1.60;85.10
36990;DHT22;22898;52.102;5.776;2022-11-20T05:53:32;1.80;84.70
36990;DHT22;22898;52.102;5.776;2022-11-20T05:58:23;1.80;83.50
36990;DHT22;22898;52.102;5.776;2022-11-20T06:00:50;1.80;82.80
36990;DHT22;22898;52.102;5.776;2022-11-20T06:03:15;1.60;83.10
36990;DHT22;22898;52.102;5.776;2022-11-20T06:05:43;1.40;83.50
36990;DHT22;22898;52.102;5.776;2022-11-20T06:08:08;1.40;84.80
36990;DHT22;22898;52.102;5.776;2022-11-20T06:10:33;1.30;84.30
36990;DHT22;22898;52.102;5.776;2022-11-20T06:12:59;1.30;84.80
36990;DHT22;22898;52.102;5.776;2022-11-20T06:15:24;1.20;84.80
36990;DHT22;22898;52.102;5.776;2022-11-20T06:17:55;1.20;85.10
36990;DHT22;22898;52.102;5.776;2022-11-20T06:20:23;1.30;85.30
36990;DHT22;22898;52.102;5.776;2022-11-20T06:22:49;1.30;85.50
36990;DHT22;22898;52.102;5.776;2022-11-20T06:25:14;1.40;85.50
36990;DHT22;22898;52.102;5.776;2022-11-20T06:27:40;1.60;84.60
36990;DHT22;22898;52.102;5.776;2022-11-20T06:30:05;1.50;84.60
36990;DHT22;22898;52.102;5.776;2022-11-20T06:32:32;1.40;84.90
36990;DHT22;22898;52.102;5.776;2022-11-20T06:34:57;1.30;85.00
36990;DHT22;22898;52.102;5.776;2022-11-20T06:37:24;1.40;85.00
36990;DHT22;22898;52.102;5.776;2022-11-20T06:39:50;1.40;84.90
36990;DHT22;22898;52.102;5.776;2022-11-20T06:42:15;1.40;84.60
36990;DHT22;22898;52.102;5.776;2022-11-20T06:44:40;1.30;84.90
36990;DHT22;22898;52.102;5.776;2022-11-20T06:47:06;1.30;85.10
36990;DHT22;22898;52.102;5.776;2022-11-20T06:49:31;1.30;85.30
36990;DHT22;22898;52.102;5.776;2022-11-20T06:51:57;1.30;84.90
36990;DHT22;22898;52.102;5.776;2022-11-20T06:54:22;1.30;84.90
36990;DHT22;22898;52.102;5.776;2022-11-20T06:56:51;1.20;85.10
36990;DHT22;22898;52.102;5.776;2022-11-20T06:59:17;1.30;85.10
36990;DHT22;22898;52.102;5.776;2022-11-20T07:01:43;1.30;84.30
36990;DHT22;22898;52.102;5.776;2022-11-20T07:04:08;1.20;85.00
36990;DHT22;22898;52.102;5.776;2022-11-20T07:06:34;1.20;85.00
36990;DHT22;22898;52.102;5.776;2022-11-20T07:08:59;1.20;85.20
36990;DHT22;22898;52.102;5.776;2022-11-20T07:11:25;1.10;86.00
36990;DHT22;22898;52.102;5.776;2022-11-20T07:13:50;1.20;85.10
36990;DHT22;22898;52.102;5.776;2022-11-20T07:16:15;1.30;85.10
36990;DHT22;22898;52.102;5.776;2022-11-20T07:18:41;1.20;85.40
36990;DHT22;22898;52.102;5.776;2022-11-20T07:21:07;1.30;85.10
36990;DHT22;22898;52.102;5.776;2022-11-20T07:23:33;1.30;84.80
36990;DHT22;22898;52.102;5.776;2022-11-20T07:26:09;1.10;85.70
36990;DHT22;22898;52.102;5.776;2022-11-20T07:28:37;1.20;85.60
36990;DHT22;22898;52.102;5.776;2022-11-20T07:31:02;1.30;85.20
36990;DHT22;22898;52.102;5.776;2022-11-20T07:33:28;1.30;85.10
36990;DHT22;22898;52.102;5.776;2022-11-20T07:35:54;1.20;85.80
36990;DHT22;22898;52.102;5.776;2022-11-20T07:38:19;1.20;86.30
36990;DHT22;22898;52.102;5.776;2022-11-20T07:40:45;1.40;86.10
36990;DHT22;22898;52.102;5.776;2022-11-20T07:43:11;1.50;85.70
36990;DHT22;22898;52.102;5.776;2022-11-20T07:45:37;1.30;86.30
36990;DHT22;22898;52.102;5.776;2022-11-20T07:48:02;1.40;86.50
36990;DHT22;22898;52.102;5.776;2022-11-20T07:50:28;1.50;86.50
36990;DHT22;22898;52.102;5.776;2022-11-20T07:53:00;1.70;86.30
36990;DHT22;22898;52.102;5.776;2022-11-20T07:55:25;1.60;86.60
36990;DHT22;22898;52.102;5.776;2022-11-20T07:57:54;1.80;87.00
36990;DHT22;22898;52.102;5.776;2022-11-20T08:00:19;2.00;86.90
36990;DHT22;22898;52.102;5.776;2022-11-20T08:02:48;2.10;86.30
36990;DHT22;22898;52.102;5.776;2022-11-20T08:05:13;2.10;87.30
36990;DHT22;22898;52.102;5.776;2022-11-20T08:07:39;2.20;87.40
36990;DHT22;22898;52.102;5.776;2022-11-20T08:10:06;2.40;87.30
36990;DHT22;22898;52.102;5.776;2022-11-20T08:12:31;2.60;87.10
36990;DHT22;22898;52.102;5.776;2022-11-20T08:15:16;2.90;86.60
36990;DHT22;22898;52.102;5.776;2022-11-20T08:17:42;3.00;86.60
36990;DHT22;22898;52.102;5.776;2022-11-20T08:20:08;3.10;86.30
36990;DHT22;22898;52.102;5.776;2022-11-20T08:22:33;3.20;86.50
36990;DHT22;22898;52.102;5.776;2022-11-20T08:24:59;3.40;86.30
36990;DHT22;22898;52.102;5.776;2022-11-20T08:27:24;3.50;85.80
36990;DHT22;22898;52.102;5.776;2022-11-20T08:29:50;3.50;86.10
36990;DHT22;22898;52.102;5.776;2022-11-20T08:32:15;3.50;86.80
36990;DHT22;22898;52.102;5.776;2022-11-20T08:34:41;3.50;87.00
36990;DHT22;22898;52.102;5.776;2022-11-20T08:37:06;3.70;87.00
36990;DHT22;22898;52.102;5.776;2022-11-20T08:39:32;3.80;86.80
36990;DHT22;22898;52.102;5.776;2022-11-20T08:41:57;4.00;86.40
36990;DHT22;22898;52.102;5.776;2022-11-20T08:44:23;4.10;86.70
36990;DHT22;22898;52.102;5.776;2022-11-20T08:46:48;4.10;87.00
36990;DHT22;22898;52.102;5.776;2022-11-20T08:49:14;4.10;87.20
36990;DHT22;22898;52.102;5.776;2022-11-20T08:51:39;4.30;87.20
36990;DHT22;22898;52.102;5.776;2022-11-20T08:54:06;4.40;87.00
36990;DHT22;22898;52.102;5.776;2022-11-20T08:56:31;4.60;86.90
36990;DHT22;22898;52.102;5.776;2022-11-20T08:58:57;4.60;86.80
36990;DHT22;22898;52.102;5.776;2022-11-20T09:01:24;4.70;87.80
36990;DHT22;22898;52.102;5.776;2022-11-20T09:03:51;4.60;88.50
36990;DHT22;22898;52.102;5.776;2022-11-20T09:06:17;4.90;88.50
36990;DHT22;22898;52.102;5.776;2022-11-20T09:08:44;5.20;87.60
36990;DHT22;22898;52.102;5.776;2022-11-20T09:11:10;5.40;87.30
36990;DHT22;22898;52.102;5.776;2022-11-20T09:13:37;5.50;87.20
36990;DHT22;22898;52.102;5.776;2022-11-20T09:16:04;5.30;87.40
36990;DHT22;22898;52.102;5.776;2022-11-20T09:18:30;5.20;88.30
36990;DHT22;22898;52.102;5.776;2022-11-20T09:20:58;5.10;89.40
36990;DHT22;22898;52.102;5.776;2022-11-20T09:23:25;5.30;88.80
36990;DHT22;22898;52.102;5.776;2022-11-20T09:25:51;5.40;87.90
36990;DHT22;22898;52.102;5.776;2022-11-20T09:28:18;5.50;88.10
36990;DHT22;22898;52.102;5.776;2022-11-20T09:30:43;5.50;88.70
36990;DHT22;22898;52.102;5.776;2022-11-20T09:33:09;5.70;88.30
36990;DHT22;22898;52.102;5.776;2022-11-20T09:35:34;5.90;88.50
36990;DHT22;22898;52.102;5.776;2022-11-20T09:38:06;6.10;87.50
36990;DHT22;22898;52.102;5.776;2022-11-20T09:40:32;6.20;87.20
36990;DHT22;22898;52.102;5.776;2022-11-20T09:45:50;6.50;87.20
36990;DHT22;22898;52.102;5.776;2022-11-20T09:48:24;6.50;86.50
36990;DHT22;22898;52.102;5.776;2022-11-20T09:50:54;6.60;86.90
36990;DHT22;22898;52.102;5.776;2022-11-20T09:53:33;6.60;87.00
36990;DHT22;22898;52.102;5.776;2022-11-20T09:56:01;6.70;87.10
36990;DHT22;22898;52.102;5.776;2022-11-20T10:00:59;6.40;88.40
36990;DHT22;22898;52.102;5.776;2022-11-20T10:03:30;6.50;87.90
36990;DHT22;22898;52.102;5.776;2022-11-20T10:05:58;6.70;88.30
36990;DHT22;22898;52.102;5.776;2022-11-20T10:08:25;6.80;87.60
36990;DHT22;22898;52.102;5.776;2022-11-20T10:29:19;7.40;87.70
36990;DHT22;22898;52.102;5.776;2022-11-20T10:31:51;7.60;87.70
36990;DHT22;22898;52.102;5.776;2022-11-20T10:34:21;7.70;87.70
36990;DHT22;22898;52.102;5.776;2022-11-20T10:36:54;7.90;87.60
36990;DHT22;22898;52.102;5.776;2022-11-20T10:39:26;7.90;88.20
36990;DHT22;22898;52.102;5.776;2022-11-20T10:41:55;8.00;87.20
36990;DHT22;22898;52.102;5.776;2022-11-20T10:44:21;8.00;87.30
36990;DHT22;22898;52.102;5.776;2022-11-20T10:47:21;7.90;88.00
36990;DHT22;22898;52.102;5.776;2022-11-20T10:49:53;7.80;88.80
36990;DHT22;22898;52.102;5.776;2022-11-20T10:54:55;8.00;89.10
36990;DHT22;22898;52.102;5.776;2022-11-20T10:59:55;8.30;87.90
36990;DHT22;22898;52.102;5.776;2022-11-20T11:02:24;8.30;88.20
36990;DHT22;22898;52.102;5.776;2022-11-20T11:04:57;8.40;88.40
36990;DHT22;22898;52.102;5.776;2022-11-20T11:07:35;8.40;88.80
36990;DHT22;22898;52.102;5.776;2022-11-20T11:10:05;8.50;88.70
36990;DHT22;22898;52.102;5.776;2022-11-20T11:12:37;8.70;87.70
36990;DHT22;22898;52.102;5.776;2022-11-20T11:15:11;8.50;89.10
36990;DHT22;22898;52.102;5.776;2022-11-20T11:17:37;8.50;88.60
36990;DHT22;22898;52.102;5.776;2022-11-20T11:20:23;8.30;90.00
36990;DHT22;22898;52.102;5.776;2022-11-20T11:22:54;8.40;89.70
36990;DHT22;22898;52.102;5.776;2022-11-20T11:25:55;8.10;90.60
36990;DHT22;22898;52.102;5.776;2022-11-20T11:28:21;8.00;91.00
36990;DHT22;22898;52.102;5.776;2022-11-20T11:30:47;7.80;91.50
36990;DHT22;22898;52.102;5.776;2022-11-20T11:35:49;8.30;91.10
36990;DHT22;22898;52.102;5.776;2022-11-20T11:38:57;8.50;90.80
36990;DHT22;22898;52.102;5.776;2022-11-20T11:41:04;8.40;91.10
36990;DHT22;22898;52.102;5.776;2022-11-20T11:43:34;8.20;91.90
36990;DHT22;22898;52.102;5.776;2022-11-20T11:46:27;8.40;91.40
36990;DHT22;22898;52.102;5.776;2022-11-20T11:51:40;8.70;91.10
36990;DHT22;22898;52.102;5.776;2022-11-20T11:54:14;8.80;91.00
36990;DHT22;22898;52.102;5.776;2022-11-20T11:56:42;8.50;91.40
36990;DHT22;22898;52.102;5.776;2022-11-20T11:59:10;8.60;91.50
36990;DHT22;22898;52.102;5.776;2022-11-20T12:01:43;8.50;91.60
36990;DHT22;22898;52.102;5.776;2022-11-20T12:07:01;8.20;92.20
36990;DHT22;22898;52.102;5.776;2022-11-20T12:09:34;8.10;92.30
36990;DHT22;22898;52.102;5.776;2022-11-20T12:12:05;8.20;92.20
36990;DHT22;22898;52.102;5.776;2022-11-20T12:14:34;8.20;92.60
36990;DHT22;22898;52.102;5.776;2022-11-20T12:17:01;8.20;92.50
36990;DHT22;22898;52.102;5.776;2022-11-20T12:19:29;8.30;92.70
36990;DHT22;22898;52.102;5.776;2022-11-20T12:40:15;8.80;92.30
36990;DHT22;22898;52.102;5.776;2022-11-20T12:42:46;8.50;92.90
36990;DHT22;22898;52.102;5.776;2022-11-20T12:53:33;8.30;94.00
36990;DHT22;22898;52.102;5.776;2022-11-20T12:56:21;8.30;94.10
36990;DHT22;22898;52.102;5.776;2022-11-20T13:01:34;8.20;94.50
36990;DHT22;22898;52.102;5.776;2022-11-20T13:06:51;8.30;94.80
36990;DHT22;22898;52.102;5.776;2022-11-20T13:09:17;8.40;94.50
36990;DHT22;22898;52.102;5.776;2022-11-20T13:11:47;8.60;94.20
36990;DHT22;22898;52.102;5.776;2022-11-20T13:17:04;8.70;94.70
36990;DHT22;22898;52.102;5.776;2022-11-20T13:19:31;9.00;93.80
36990;DHT22;22898;52.102;5.776;2022-11-20T13:21:57;9.30;93.10
36990;DHT22;22898;52.102;5.776;2022-11-20T13:24:24;9.20;93.30
36990;DHT22;22898;52.102;5.776;2022-11-20T13:29:30;8.10;94.90
36990;DHT22;22898;52.102;5.776;2022-11-20T13:32:05;7.70;96.30
36990;DHT22;22898;52.102;5.776;2022-11-20T13:34:33;7.40;96.60
36990;DHT22;22898;52.102;5.776;2022-11-20T13:37:00;7.30;97.00
36990;DHT22;22898;52.102;5.776;2022-11-20T13:39:32;7.40;97.20
36990;DHT22;22898;52.102;5.776;2022-11-20T13:42:01;7.60;97.20
36990;DHT22;22898;52.102;5.776;2022-11-20T13:44:42;7.60;97.10
36990;DHT22;22898;52.102;5.776;2022-11-20T13:47:25;7.40;97.90
36990;DHT22;22898;52.102;5.776;2022-11-20T13:49:51;7.30;97.90
36990;DHT22;22898;52.102;5.776;2022-11-20T13:55:16;7.40;98.10
36990;DHT22;22898;52.102;5.776;2022-11-20T14:00:15;7.30;98.30
36990;DHT22;22898;52.102;5.776;2022-11-20T14:02:41;7.60;97.90
36990;DHT22;22898;52.102;5.776;2022-11-20T14:05:14;7.60;97.90
36990;DHT22;22898;52.102;5.776;2022-11-20T14:07:42;7.70;97.70
36990;DHT22;22898;52.102;5.776;2022-11-20T14:10:27;7.80;97.40
36990;DHT22;22898;52.102;5.776;2022-11-20T14:12:53;7.70;97.70
36990;DHT22;22898;52.102;5.776;2022-11-20T14:15:34;7.50;98.30
36990;DHT22;22898;52.102;5.776;2022-11-20T14:18:11;7.30;98.40
36990;DHT22;22898;52.102;5.776;2022-11-20T14:20:36;7.30;98.90
36990;DHT22;22898;52.102;5.776;2022-11-20T14:23:03;7.40;99.00
36990;DHT22;22898;52.102;5.776;2022-11-20T14:25:31;7.40;98.70
36990;DHT22;22898;52.102;5.776;2022-11-20T14:28:01;7.50;98.40
36990;DHT22;22898;52.102;5.776;2022-11-20T14:30:28;7.60;98.40
36990;DHT22;22898;52.102;5.776;2022-11-20T14:32:55;7.80;98.50
36990;DHT22;22898;52.102;5.776;2022-11-20T14:35:23;7.90;97.80
36990;DHT22;22898;52.102;5.776;2022-11-20T14:37:50;7.80;98.10
36990;DHT22;22898;52.102;5.776;2022-11-20T14:42:48;8.30;97.40
36990;DHT22;22898;52.102;5.776;2022-11-20T14:45:13;8.50;96.70
36990;DHT22;22898;52.102;5.776;2022-11-20T14:47:44;8.70;96.60
36990;DHT22;22898;52.102;5.776;2022-11-20T14:50:20;8.60;96.40
36990;DHT22;22898;52.102;5.776;2022-11-20T14:52:51;8.50;96.40
36990;DHT22;22898;52.102;5.776;2022-11-20T14:55:30;8.40;96.60
36990;DHT22;22898;52.102;5.776;2022-11-20T14:58:00;8.20;97.00
36990;DHT22;22898;52.102;5.776;2022-11-20T15:00:26;8.10;97.50
36990;DHT22;22898;52.102;5.776;2022-11-20T15:02:52;8.10;97.40
36990;DHT22;22898;52.102;5.776;2022-11-20T15:05:23;8.00;97.70
36990;DHT22;22898;52.102;5.776;2022-11-20T15:07:50;7.80;98.00
36990;DHT22;22898;52.102;5.776;2022-11-20T15:10:24;8.00;97.90
36990;DHT22;22898;52.102;5.776;2022-11-20T15:12:50;8.10;97.30
36990;DHT22;22898;52.102;5.776;2022-11-20T15:15:17;7.90;97.80
36990;DHT22;22898;52.102;5.776;2022-11-20T15:17:45;7.80;98.40
36990;DHT22;22898;52.102;5.776;2022-11-20T15:20:14;7.80;98.60
36990;DHT22;22898;52.102;5.776;2022-11-20T15:22:41;7.80;98.70
36990;DHT22;22898;52.102;5.776;2022-11-20T15:25:16;7.90;98.30
36990;DHT22;22898;52.102;5.776;2022-11-20T15:27:42;8.10;98.10
36990;DHT22;22898;52.102;5.776;2022-11-20T15:30:12;8.30;98.00
36990;DHT22;22898;52.102;5.776;2022-11-20T15:32:39;8.40;97.80
36990;DHT22;22898;52.102;5.776;2022-11-20T15:35:04;8.30;97.80
36990;DHT22;22898;52.102;5.776;2022-11-20T15:37:30;8.20;98.00
36990;DHT22;22898;52.102;5.776;2022-11-20T15:39:57;8.20;98.20
36990;DHT22;22898;52.102;5.776;2022-11-20T15:42:22;8.60;97.70
36990;DHT22;22898;52.102;5.776;2022-11-20T15:44:48;8.40;97.70
36990;DHT22;22898;52.102;5.776;2022-11-20T15:47:13;8.40;98.20
36990;DHT22;22898;52.102;5.776;2022-11-20T15:49:39;8.50;98.10
36990;DHT22;22898;52.102;5.776;2022-11-20T15:52:08;8.60;97.50
36990;DHT22;22898;52.102;5.776;2022-11-20T15:54:33;8.90;97.20
36990;DHT22;22898;52.102;5.776;2022-11-20T15:56:59;8.90;97.30
36990;DHT22;22898;52.102;5.776;2022-11-20T15:59:25;8.90;96.90
36990;DHT22;22898;52.102;5.776;2022-11-20T16:01:51;9.00;96.90
36990;DHT22;22898;52.102;5.776;2022-11-20T16:04:16;9.00;96.90
36990;DHT22;22898;52.102;5.776;2022-11-20T16:06:42;9.10;96.70
36990;DHT22;22898;52.102;5.776;2022-11-20T16:09:09;9.30;96.50
36990;DHT22;22898;52.102;5.776;2022-11-20T16:11:35;9.40;96.10
36990;DHT22;22898;52.102;5.776;2022-11-20T16:14:02;9.20;96.20
36990;DHT22;22898;52.102;5.776;2022-11-20T16:16:46;9.00;96.90
36990;DHT22;22898;52.102;5.776;2022-11-20T16:19:12;8.90;96.90
36990;DHT22;22898;52.102;5.776;2022-11-20T16:21:38;8.60;97.40
36990;DHT22;22898;52.102;5.776;2022-11-20T16:24:06;8.30;98.00
36990;DHT22;22898;52.102;5.776;2022-11-20T16:26:34;8.30;98.10
36990;DHT22;22898;52.102;5.776;2022-11-20T16:29:00;8.00;98.80
36990;DHT22;22898;52.102;5.776;2022-11-20T16:31:25;7.90;99.20
36990;DHT22;22898;52.102;5.776;2022-11-20T16:33:52;7.70;99.50
36990;DHT22;22898;52.102;5.776;2022-11-20T16:36:19;7.50;99.80
36990;DHT22;22898;52.102;5.776;2022-11-20T16:38:46;7.80;99.20
36990;DHT22;22898;52.102;5.776;2022-11-20T16:41:13;7.70;99.70
36990;DHT22;22898;52.102;5.776;2022-11-20T16:43:58;7.70;99.90
36990;DHT22;22898;52.102;5.776;2022-11-20T16:46:24;8.00;99.40
36990;DHT22;22898;52.102;5.776;2022-11-20T16:48:54;8.30;98.90
36990;DHT22;22898;52.102;5.776;2022-11-20T16:51:21;8.20;98.90
36990;DHT22;22898;52.102;5.776;2022-11-20T16:53:48;8.10;98.90
36990;DHT22;22898;52.102;5.776;2022-11-20T16:56:16;7.90;99.30
36990;DHT22;22898;52.102;5.776;2022-11-20T16:58:45;8.10;99.10
36990;DHT22;22898;52.102;5.776;2022-11-20T17:01:13;8.10;99.20
36990;DHT22;22898;52.102;5.776;2022-11-20T17:03:40;8.00;99.50
36990;DHT22;22898;52.102;5.776;2022-11-20T17:08:37;8.00;99.70
36990;DHT22;22898;52.102;5.776;2022-11-20T17:11:04;8.20;98.90
36990;DHT22;22898;52.102;5.776;2022-11-20T17:13:31;7.80;99.90
36990;DHT22;22898;52.102;5.776;2022-11-20T17:15:59;8.10;99.10
36990;DHT22;22898;52.102;5.776;2022-11-20T17:18:27;8.30;98.90